Time;durP1;ratioP1;P1;durP2;ratioP2;P2;SDS_P1;SDS_P2;PMS_P1;PMS_P2;Temp;Humidity;BMP_temperature;BMP_pressure;BME280_temperature;BME280_humidity;BME280_pressure;Samples;Min_cycle;Max_cycle;Signal;HPM_P1;HPM_P2
2023/12/22 00:01:37;;;;;;;27.50;6.80;;;6.00;90.70;;;;;;4997531;28;20055;-70
2023/12/22 00:04:05;;;;;;;16.88;5.25;;;6.00;82.10;;;;;;5035539;28;20479;-70
2023/12/22 00:06:31;;;;;;;20.35;4.85;;;5.80;68.70;;;;;;5012701;28;20373;-70
2023/12/22 00:08:57;;;;;;;24.30;5.55;;;5.70;73.80;;;;;;5029314;28;20057;-70
2023/12/22 00:11:22;;;;;;;23.83;5.97;;;5.60;84.20;;;;;;5031821;28;20044;-70
2023/12/22 00:13:48;;;;;;;35.03;7.18;;;5.60;91.90;;;;;;5029076;28;20088;-70
2023/12/22 00:16:14;;;;;;;40.00;8.40;;;5.60;96.20;;;;;;5004647;28;20044;-71
2023/12/22 00:18:39;;;;;;;28.27;5.28;;;5.50;99.90;;;;;;5029265;28;20083;-71
2023/12/22 00:21:10;;;;;;;31.25;5.80;;;4.80;99.90;;;;;;5013344;28;20594;-71
2023/12/22 00:23:36;;;;;;;45.45;6.97;;;4.50;99.90;;;;;;4995909;28;20048;-72
2023/12/22 00:26:02;;;;;;;41.55;6.43;;;4.30;99.90;;;;;;5012765;28;20045;-72
2023/12/22 00:28:27;;;;;;;47.03;7.68;;;4.20;99.90;;;;;;5001417;28;20135;-72
2023/12/22 00:30:53;;;;;;;56.83;11.98;;;4.10;99.90;;;;;;5009367;28;20455;-71
2023/12/22 00:33:19;;;;;;;68.15;11.00;;;4.20;99.90;;;;;;5006538;28;20053;-71
2023/12/22 00:35:44;;;;;;;57.13;11.60;;;4.30;99.90;;;;;;5017265;28;20112;-71
2023/12/22 00:38:10;;;;;;;43.15;9.07;;;4.40;99.90;;;;;;5018598;28;20135;-71
2023/12/22 00:40:36;;;;;;;56.75;9.20;;;4.60;99.90;;;;;;4986523;28;20046;-71
2023/12/22 00:43:02;;;;;;;43.85;8.30;;;4.70;99.90;;;;;;5006370;28;20054;-71
2023/12/22 00:45:27;;;;;;;51.60;9.07;;;4.80;99.90;;;;;;5014558;28;20060;-71
2023/12/22 00:47:53;;;;;;;56.22;9.40;;;4.90;99.90;;;;;;5013998;28;20060;-71
2023/12/22 00:50:19;;;;;;;60.28;11.63;;;4.90;99.90;;;;;;5000361;28;20040;-71
2023/12/22 00:52:44;;;;;;;59.97;11.05;;;5.00;99.90;;;;;;5023712;28;20051;-72
2023/12/22 00:55:10;;;;;;;72.03;10.27;;;5.10;99.90;;;;;;5023776;28;20048;-71
2023/12/22 00:57:36;;;;;;;48.28;10.50;;;5.20;99.90;;;;;;5018340;28;20080;-72
2023/12/22 01:00:04;;;;;;;44.17;9.90;;;5.20;99.90;;;;;;5022988;28;20033;-71
2023/12/22 01:02:30;;;;;;;46.15;7.53;;;5.20;99.90;;;;;;5005308;28;20615;-71
2023/12/22 01:04:56;;;;;;;29.48;6.55;;;5.30;99.90;;;;;;5007525;28;20052;-71
2023/12/22 01:07:21;;;;;;;30.20;8.18;;;5.20;99.90;;;;;;5008410;28;20052;-71
2023/12/22 01:09:47;;;;;;;33.50;7.78;;;5.20;99.90;;;;;;5012079;28;20040;-71
2023/12/22 01:12:13;;;;;;;35.35;9.90;;;5.20;96.60;;;;;;5030251;28;20134;-71
2023/12/22 01:14:38;;;;;;;32.47;7.80;;;5.20;97.30;;;;;;5018353;28;20045;-71
2023/12/22 01:17:04;;;;;;;33.65;9.38;;;5.20;96.40;;;;;;4985920;28;20116;-71
2023/12/22 01:19:30;;;;;;;43.38;9.90;;;5.30;96.60;;;;;;5014618;28;20049;-71
2023/12/22 01:21:55;;;;;;;49.28;10.65;;;5.50;96.10;;;;;;5042202;28;20053;-71
2023/12/22 01:24:21;;;;;;;49.47;12.05;;;5.60;97.10;;;;;;5024834;28;20335;-71
2023/12/22 01:26:47;;;;;;;58.75;11.93;;;5.70;99.70;;;;;;5007460;28;20041;-71
2023/12/22 01:29:12;;;;;;;49.17;10.90;;;5.70;99.00;;;;;;5022926;28;20047;-71
2023/12/22 01:31:38;;;;;;;50.53;10.32;;;5.80;94.20;;;;;;5005425;28;20040;-71
2023/12/22 01:34:04;;;;;;;41.28;10.50;;;5.90;81.80;;;;;;5025471;28;20526;-71
2023/12/22 01:36:30;;;;;;;47.95;10.43;;;6.10;69.20;;;;;;5010520;28;20053;-71
2023/12/22 01:38:56;;;;;;;49.50;9.70;;;6.20;66.00;;;;;;5027676;28;20620;-71
2023/12/22 01:41:22;;;;;;;39.30;9.48;;;6.20;50.70;;;;;;5027860;28;20061;-71
2023/12/22 01:43:48;;;;;;;39.20;9.30;;;6.20;45.50;;;;;;5018610;28;20480;-70
2023/12/22 01:46:14;;;;;;;37.65;9.55;;;6.20;48.60;;;;;;5022554;28;20088;-71
2023/12/22 01:48:40;;;;;;;33.35;9.25;;;6.20;52.00;;;;;;5030549;28;20114;-71
2023/12/22 01:51:07;;;;;;;37.30;8.85;;;6.20;48.80;;;;;;5002396;28;20044;-70
2023/12/22 01:53:33;;;;;;;35.70;7.70;;;6.30;52.10;;;;;;5022336;28;20132;-70
2023/12/22 01:56:01;;;;;;;36.15;9.35;;;6.20;51.80;;;;;;5033303;28;20053;-70
2023/12/22 01:58:30;;;;;;;34.15;8.10;;;6.20;47.40;;;;;;5013833;28;20451;-70
2023/12/22 02:00:56;;;;;;;44.40;11.30;;;6.30;48.30;;;;;;5025246;28;20040;-70
2023/12/22 02:03:23;;;;;;;41.05;9.15;;;6.30;49.40;;;;;;5015983;28;20457;-70
2023/12/22 02:05:49;;;;;;;48.90;12.20;;;6.20;46.40;;;;;;5023194;28;20048;-70
2023/12/22 02:08:18;;;;;;;44.15;10.32;;;6.30;48.70;;;;;;5026751;28;20053;-70
2023/12/22 02:10:44;;;;;;;40.72;10.23;;;6.30;47.40;;;;;;5018266;28;20056;-70
2023/12/22 02:13:11;;;;;;;34.60;8.30;;;6.40;39.60;;;;;;5040899;28;20701;-70
2023/12/22 02:15:37;;;;;;;44.03;9.07;;;6.50;34.80;;;;;;5021872;28;20059;-70
2023/12/22 02:18:14;;;;;;;20.90;4.53;;;6.50;48.40;;;;;;4993386;28;20072;-71
2023/12/22 02:20:41;;;;;;;63.55;10.13;;;6.00;90.30;;;;;;5025568;28;20056;-70
2023/12/22 02:23:06;;;;;;;70.43;13.05;;;5.80;99.10;;;;;;4995181;28;20110;-71
2023/12/22 02:25:32;;;;;;;78.43;12.95;;;5.70;99.90;;;;;;5008551;28;20060;-70
2023/12/22 02:28:03;;;;;;;41.40;11.00;;;5.70;99.90;;;;;;5027607;28;20052;-70
2023/12/22 02:30:29;;;;;;;36.00;8.68;;;5.70;90.00;;;;;;5026618;28;20057;-71
2023/12/22 02:33:03;;;;;;;36.05;6.70;;;5.70;79.50;;;;;;5017603;28;20040;-70
2023/12/22 02:35:31;;;;;;;23.33;6.05;;;5.80;74.90;;;;;;5016818;28;20056;-70
2023/12/22 02:37:58;;;;;;;32.95;6.90;;;5.80;71.70;;;;;;5022733;28;20557;-71
2023/12/22 02:40:26;;;;;;;33.67;6.53;;;5.80;67.40;;;;;;5008390;28;20076;-70
2023/12/22 02:42:53;;;;;;;35.45;8.27;;;5.90;67.40;;;;;;5000147;28;20796;-70
2023/12/22 02:45:19;;;;;;;39.17;8.95;;;5.90;65.80;;;;;;5010002;28;20049;-71
2023/12/22 02:47:46;;;;;;;46.42;8.98;;;6.00;71.50;;;;;;5012768;28;20056;-70
2023/12/22 02:50:14;;;;;;;43.35;10.48;;;6.10;69.40;;;;;;4995564;28;20041;-70
2023/12/22 02:52:40;;;;;;;60.08;11.10;;;6.20;66.90;;;;;;5015744;28;20139;-70
2023/12/22 02:55:06;;;;;;;42.92;10.32;;;6.20;70.00;;;;;;5022933;28;20438;-70
2023/12/22 02:57:32;;;;;;;43.15;11.10;;;6.20;68.90;;;;;;5033911;28;20107;-70
2023/12/22 02:59:57;;;;;;;42.05;10.15;;;6.20;71.80;;;;;;5025869;28;20041;-70
2023/12/22 03:02:24;;;;;;;43.95;8.80;;;6.20;57.50;;;;;;5016075;28;20136;-70
2023/12/22 03:04:50;;;;;;;31.05;9.20;;;6.30;56.20;;;;;;4998787;28;20474;-70
2023/12/22 03:07:16;;;;;;;30.75;8.95;;;6.30;59.70;;;;;;4992219;28;20067;-70
2023/12/22 03:09:42;;;;;;;34.20;10.05;;;6.20;53.90;;;;;;5009779;28;20053;-70
2023/12/22 03:12:09;;;;;;;38.30;9.40;;;6.30;49.50;;;;;;5026762;28;20064;-70
2023/12/22 03:14:35;;;;;;;24.52;5.40;;;6.40;48.40;;;;;;5002214;28;20408;-70
2023/12/22 03:17:05;;;;;;;22.80;4.60;;;6.20;44.90;;;;;;5005569;28;20048;-70
2023/12/22 03:19:32;;;;;;;21.30;4.82;;;6.00;42.10;;;;;;4992699;28;20037;-70
2023/12/22 03:21:58;;;;;;;20.02;4.55;;;5.90;43.90;;;;;;5012465;28;20677;-70
2023/12/22 03:24:24;;;;;;;24.50;5.25;;;5.80;46.40;;;;;;5021225;28;20060;-70
2023/12/22 03:26:50;;;;;;;23.77;5.18;;;5.70;49.60;;;;;;5012658;28;20053;-69
2023/12/22 03:29:17;;;;;;;25.58;6.75;;;5.70;58.50;;;;;;5016076;28;20122;-70
2023/12/22 03:31:43;;;;;;;34.28;9.90;;;5.60;66.00;;;;;;5017241;28;20332;-69
2023/12/22 03:34:10;;;;;;;37.20;9.65;;;5.70;77.30;;;;;;5013955;28;20056;-69
2023/12/22 03:36:36;;;;;;;30.20;8.27;;;5.70;81.60;;;;;;5022528;28;20048;-70
2023/12/22 03:39:02;;;;;;;32.38;7.10;;;5.80;73.50;;;;;;5025606;28;20056;-69
2023/12/22 03:41:29;;;;;;;33.38;8.25;;;5.70;72.10;;;;;;5003645;28;20503;-69
2023/12/22 03:43:58;;;;;;;37.05;9.07;;;5.60;76.90;;;;;;5042058;28;20477;-69
2023/12/22 03:46:24;;;;;;;33.78;9.38;;;5.60;84.40;;;;;;5015794;28;20821;-69
2023/12/22 03:48:53;;;;;;;34.40;7.95;;;5.50;90.00;;;;;;5012424;28;20053;-69
2023/12/22 03:51:19;;;;;;;39.60;10.18;;;5.50;92.70;;;;;;5003104;28;20402;-69
2023/12/22 03:53:45;;;;;;;37.72;8.25;;;5.50;93.10;;;;;;5000327;28;20102;-69
2023/12/22 03:56:10;;;;;;;43.30;9.23;;;5.50;94.00;;;;;;5017635;28;20379;-69
2023/12/22 03:58:37;;;;;;;44.75;10.38;;;5.70;91.80;;;;;;5001746;28;20725;-69
2023/12/22 04:01:03;;;;;;;44.38;10.88;;;5.80;90.90;;;;;;5024055;28;20045;-69
2023/12/22 04:03:29;;;;;;;36.72;7.85;;;5.90;90.80;;;;;;5010533;28;20069;-69
2023/12/22 04:05:55;;;;;;;41.13;6.25;;;6.00;92.70;;;;;;5016995;28;20053;-69
2023/12/22 04:08:20;;;;;;;44.88;10.40;;;6.00;98.50;;;;;;5009111;28;20059;-69
2023/12/22 04:10:47;;;;;;;42.47;10.27;;;5.90;99.90;;;;;;5020034;28;20116;-69
2023/12/22 04:13:13;;;;;;;37.17;9.68;;;5.70;99.90;;;;;;5025004;28;20085;-70
2023/12/22 04:15:40;;;;;;;40.55;10.30;;;5.70;99.90;;;;;;5017933;28;20561;-69
2023/12/22 04:18:06;;;;;;;35.22;8.73;;;5.70;98.30;;;;;;4996735;28;20416;-69
2023/12/22 04:20:32;;;;;;;36.97;7.82;;;5.60;98.40;;;;;;5018504;28;20040;-69
2023/12/22 04:22:58;;;;;;;44.92;8.43;;;5.70;96.40;;;;;;5007406;28;20925;-70
2023/12/22 04:25:25;;;;;;;35.15;7.43;;;5.70;99.90;;;;;;5017297;28;20088;-69
2023/12/22 04:27:51;;;;;;;36.63;9.15;;;5.60;99.90;;;;;;5017746;28;20415;-70
2023/12/22 04:30:17;;;;;;;34.92;8.25;;;5.50;99.90;;;;;;5002941;28;20419;-69
2023/12/22 04:32:43;;;;;;;35.40;7.88;;;5.40;99.90;;;;;;5016409;28;20213;-69
2023/12/22 04:35:08;;;;;;;39.83;9.00;;;5.50;99.00;;;;;;5039646;28;20049;-70
2023/12/22 04:37:34;;;;;;;34.38;10.10;;;5.60;97.50;;;;;;5013003;28;20371;-69
2023/12/22 04:40:00;;;;;;;36.15;9.90;;;5.70;97.00;;;;;;5006006;28;20049;-69
2023/12/22 04:42:26;;;;;;;42.13;9.98;;;5.90;95.00;;;;;;5021377;28;20260;-69
2023/12/22 04:44:52;;;;;;;34.67;10.00;;;6.00;93.40;;;;;;5007758;28;20438;-69
2023/12/22 04:47:19;;;;;;;51.33;10.98;;;6.10;88.30;;;;;;5024232;28;20071;-69
2023/12/22 04:49:44;;;;;;;40.25;9.82;;;6.20;83.00;;;;;;5020413;28;20052;-70
2023/12/22 04:52:11;;;;;;;36.83;8.82;;;6.20;77.40;;;;;;4998903;28;20037;-69
2023/12/22 04:54:37;;;;;;;32.50;6.28;;;6.30;70.10;;;;;;5007737;28;20448;-70
2023/12/22 04:57:03;;;;;;;39.92;9.32;;;6.30;69.20;;;;;;5013487;28;20052;-69
2023/12/22 04:59:29;;;;;;;39.38;8.48;;;6.30;69.50;;;;;;5000526;28;20056;-69
2023/12/22 05:01:55;;;;;;;35.90;8.88;;;6.30;69.20;;;;;;5005089;28;20045;-70
2023/12/22 05:04:21;;;;;;;31.00;7.38;;;6.30;69.20;;;;;;5018050;28;20052;-70
2023/12/22 05:06:48;;;;;;;32.05;7.35;;;6.40;61.30;;;;;;5029804;28;20106;-69
2023/12/22 05:09:13;;;;;;;29.00;7.13;;;6.40;52.50;;;;;;5028055;28;20506;-69
2023/12/22 05:11:39;;;;;;;31.10;7.88;;;6.50;43.60;;;;;;5007280;28;20308;-69
2023/12/22 05:14:05;;;;;;;38.28;10.13;;;6.50;42.30;;;;;;5012302;28;20049;-69
2023/12/22 05:16:31;;;;;;;37.70;8.82;;;6.50;46.30;;;;;;5005667;28;20053;-69
2023/12/22 05:19:01;;;;;;;43.17;9.25;;;6.50;50.40;;;;;;5026208;28;20049;-69
2023/12/22 05:21:27;;;;;;;36.03;7.82;;;6.50;48.50;;;;;;5009034;28;20049;-69
2023/12/22 05:23:53;;;;;;;42.50;8.02;;;6.60;40.30;;;;;;5028148;28;20049;-69
2023/12/22 05:26:20;;;;;;;34.72;7.78;;;6.50;42.50;;;;;;5026320;28;20079;-69
2023/12/22 05:28:46;;;;;;;35.42;8.57;;;6.60;48.90;;;;;;5029251;28;20049;-69
2023/12/22 05:31:12;;;;;;;44.97;8.85;;;6.60;53.90;;;;;;5027396;28;20324;-69
2023/12/22 05:33:38;;;;;;;40.30;9.10;;;6.60;65.10;;;;;;5025104;28;20044;-69
2023/12/22 05:36:04;;;;;;;45.65;10.35;;;6.50;69.00;;;;;;5009095;28;20033;-69
2023/12/22 05:38:30;;;;;;;32.38;7.63;;;6.50;67.00;;;;;;5029317;28;20053;-70
2023/12/22 05:40:57;;;;;;;35.05;8.25;;;6.50;61.30;;;;;;5010171;28;20127;-68
2023/12/22 05:43:23;;;;;;;43.38;9.88;;;6.60;54.70;;;;;;5028041;28;20041;-69
2023/12/22 05:45:48;;;;;;;34.00;6.60;;;6.60;52.80;;;;;;5024448;28;21624;-69
2023/12/22 05:48:14;;;;;;;34.70;7.88;;;6.60;50.40;;;;;;4974723;28;20076;-69
2023/12/22 05:50:40;;;;;;;38.95;9.60;;;6.60;42.90;;;;;;5008645;28;20477;-70
2023/12/22 05:53:06;;;;;;;44.92;9.02;;;6.70;41.80;;;;;;5023511;28;20048;-69
2023/12/22 05:55:32;;;;;;;32.85;7.75;;;6.60;46.80;;;;;;5024183;28;20580;-69
2023/12/22 05:57:57;;;;;;;35.80;8.13;;;6.70;47.10;;;;;;5023412;28;20103;-69
2023/12/22 06:00:23;;;;;;;39.25;9.05;;;6.70;50.40;;;;;;5024718;28;20140;-69
2023/12/22 06:02:49;;;;;;;35.78;8.30;;;6.60;51.70;;;;;;5000693;28;20037;-69
2023/12/22 06:05:14;;;;;;;43.53;8.10;;;6.60;49.30;;;;;;5012421;28;20057;-68
2023/12/22 06:07:41;;;;;;;44.42;7.35;;;6.70;49.90;;;;;;5027287;28;20049;-69
2023/12/22 06:10:09;;;;;;;28.15;6.78;;;6.70;54.60;;;;;;5007265;28;20120;-68
2023/12/22 06:12:35;;;;;;;31.23;6.97;;;6.60;50.70;;;;;;5001607;28;20057;-68
2023/12/22 06:15:01;;;;;;;39.78;8.68;;;6.70;44.40;;;;;;5015653;28;20060;-69
2023/12/22 06:17:27;;;;;;;37.00;7.13;;;6.70;39.10;;;;;;5028003;28;20041;-68
2023/12/22 06:19:52;;;;;;;38.75;7.72;;;6.70;37.20;;;;;;4988145;28;20478;-69
2023/12/22 06:22:18;;;;;;;32.85;8.32;;;6.70;38.70;;;;;;5009061;28;20049;-69
2023/12/22 06:24:44;;;;;;;34.60;7.75;;;6.80;34.50;;;;;;5003849;28;20545;-69
2023/12/22 06:27:10;;;;;;;30.70;7.72;;;6.80;32.00;;;;;;5003718;28;20451;-68
2023/12/22 06:29:36;;;;;;;24.95;7.22;;;6.80;30.80;;;;;;5020715;28;20108;-68
2023/12/22 06:32:02;;;;;;;29.92;8.52;;;6.90;29.80;;;;;;5023125;28;20115;-68
2023/12/22 06:34:27;;;;;;;36.28;6.55;;;6.90;34.60;;;;;;5005417;28;20036;-68
2023/12/22 06:36:53;;;;;;;27.08;6.15;;;6.90;35.70;;;;;;5039821;28;20053;-69
2023/12/22 06:39:19;;;;;;;35.65;7.90;;;6.80;36.40;;;;;;5024523;28;20156;-68
2023/12/22 06:41:45;;;;;;;28.40;7.05;;;6.80;35.80;;;;;;5013574;28;20657;-68
2023/12/22 06:44:11;;;;;;;36.25;7.20;;;6.90;38.40;;;;;;5024617;28;20052;-68
2023/12/22 06:46:36;;;;;;;36.13;7.85;;;6.90;36.70;;;;;;5013747;28;20084;-68
2023/12/22 06:49:05;;;;;;;35.25;8.10;;;6.90;34.80;;;;;;5007322;28;20053;-68
2023/12/22 06:51:35;;;;;;;38.30;8.15;;;6.90;39.30;;;;;;5019341;28;20479;-68
2023/12/22 06:54:02;;;;;;;31.08;6.35;;;6.90;40.40;;;;;;5014540;28;20041;-68
2023/12/22 06:56:30;;;;;;;33.15;7.72;;;6.80;41.50;;;;;;5025289;28;20045;-68
2023/12/22 06:58:57;;;;;;;41.05;8.90;;;6.80;40.90;;;;;;5024897;28;20036;-68
2023/12/22 07:01:23;;;;;;;37.47;7.93;;;6.90;39.90;;;;;;5016470;28;20607;-68
2023/12/22 07:03:49;;;;;;;26.45;6.53;;;6.90;41.20;;;;;;5019345;28;20073;-68
2023/12/22 07:06:16;;;;;;;30.95;6.82;;;6.90;38.30;;;;;;5020095;28;20053;-68
2023/12/22 07:08:43;;;;;;;25.92;7.38;;;6.90;33.00;;;;;;5024080;28;20050;-68
2023/12/22 07:11:11;;;;;;;26.55;6.30;;;7.00;23.70;;;;;;5009087;28;21865;-68
2023/12/22 07:13:38;;;;;;;36.45;6.53;;;7.00;21.20;;;;;;5003804;28;20054;-68
2023/12/22 07:16:05;;;;;;;30.83;5.80;;;7.10;23.40;;;;;;5020589;28;20528;-68
2023/12/22 07:18:31;;;;;;;29.63;4.97;;;7.00;29.50;;;;;;5000941;28;20050;-68
2023/12/22 07:20:57;;;;;;;22.45;4.63;;;6.90;38.10;;;;;;5004132;28;20048;-68
2023/12/22 07:23:23;;;;;;;21.25;6.40;;;6.70;38.80;;;;;;4976802;28;20120;-68
2023/12/22 07:25:49;;;;;;;22.05;5.10;;;6.60;34.40;;;;;;5012975;28;20061;-68
2023/12/22 07:28:15;;;;;;;17.85;6.30;;;6.50;39.20;;;;;;5007082;28;20048;-68
2023/12/22 07:30:41;;;;;;;17.48;3.97;;;6.50;43.70;;;;;;4998962;28;20045;-68
2023/12/22 07:33:07;;;;;;;25.85;5.00;;;6.40;51.20;;;;;;5023062;28;20037;-68
2023/12/22 07:35:34;;;;;;;21.83;5.32;;;6.30;60.00;;;;;;5044901;28;20041;-68
2023/12/22 07:38:02;;;;;;;18.70;3.80;;;6.10;65.00;;;;;;5025873;28;20400;-68
2023/12/22 07:40:30;;;;;;;18.15;4.30;;;6.00;66.40;;;;;;5010730;28;20128;-68
2023/12/22 07:42:56;;;;;;;19.20;4.20;;;6.00;71.90;;;;;;5034374;28;20041;-68
2023/12/22 07:45:22;;;;;;;24.63;4.80;;;5.90;68.80;;;;;;5023094;28;20045;-68
2023/12/22 07:47:48;;;;;;;19.55;6.05;;;5.90;70.10;;;;;;5015314;28;20103;-68
2023/12/22 07:50:13;;;;;;;18.05;5.13;;;5.90;73.80;;;;;;5027444;28;20499;-68
2023/12/22 07:52:39;;;;;;;14.88;4.05;;;5.90;73.60;;;;;;5033220;28;20618;-68
2023/12/22 07:55:10;;;;;;;22.13;4.85;;;5.90;76.50;;;;;;5009256;28;20049;-67
2023/12/22 07:57:39;;;;;;;26.55;5.07;;;5.90;79.00;;;;;;5012720;28;20085;-68
2023/12/22 08:00:06;;;;;;;23.98;5.55;;;5.90;81.90;;;;;;5043886;28;20045;-68
2023/12/22 08:02:31;;;;;;;16.90;3.17;;;6.00;83.30;;;;;;5009655;28;20049;-68
2023/12/22 08:04:57;;;;;;;21.27;3.63;;;5.90;85.40;;;;;;5035622;28;20102;-68
2023/12/22 08:07:23;;;;;;;21.30;4.75;;;5.90;90.60;;;;;;5006726;28;20608;-68
2023/12/22 08:09:49;;;;;;;20.65;4.53;;;5.90;93.40;;;;;;4993360;28;20056;-67
2023/12/22 08:12:15;;;;;;;22.20;4.28;;;5.90;94.10;;;;;;5021795;28;20071;-68
2023/12/22 08:14:40;;;;;;;18.25;4.00;;;5.90;93.80;;;;;;5028110;28;20433;-68
2023/12/22 08:17:06;;;;;;;17.17;4.25;;;5.90;93.60;;;;;;5025645;28;20060;-68
2023/12/22 08:19:32;;;;;;;24.05;5.20;;;6.00;91.10;;;;;;5013632;28;20479;-68
2023/12/22 08:21:59;;;;;;;15.93;3.40;;;6.10;86.90;;;;;;5029561;28;20049;-68
2023/12/22 08:24:25;;;;;;;17.23;4.35;;;6.20;84.70;;;;;;5005936;28;20080;-68
2023/12/22 08:26:51;;;;;;;19.73;4.03;;;6.30;80.20;;;;;;5022510;28;20159;-68
2023/12/22 08:29:16;;;;;;;18.63;3.50;;;6.40;80.20;;;;;;5024406;28;20558;-67
2023/12/22 08:31:43;;;;;;;19.88;3.30;;;6.40;83.10;;;;;;5023702;28;20037;-67
2023/12/22 08:34:09;;;;;;;26.63;5.13;;;6.40;83.90;;;;;;5024251;28;20057;-66
2023/12/22 08:36:34;;;;;;;22.30;4.28;;;6.50;87.10;;;;;;5024438;28;20498;-68
2023/12/22 08:39:00;;;;;;;27.88;5.75;;;6.50;91.00;;;;;;5025637;28;20055;-67
2023/12/22 08:41:26;;;;;;;19.55;4.80;;;6.50;94.00;;;;;;5028275;28;20053;-68
2023/12/22 08:43:52;;;;;;;23.00;3.88;;;6.40;96.40;;;;;;5024590;28;20048;-67
2023/12/22 08:46:18;;;;;;;27.42;4.32;;;6.40;97.60;;;;;;5022609;28;20055;-67
2023/12/22 08:48:44;;;;;;;26.10;5.57;;;6.40;98.20;;;;;;5009154;28;20072;-67
2023/12/22 08:51:09;;;;;;;27.30;5.47;;;6.40;99.70;;;;;;5005104;28;20300;-67
2023/12/22 08:53:37;;;;;;;22.25;4.15;;;6.40;99.90;;;;;;5010999;28;21136;-67
2023/12/22 08:56:07;;;;;;;27.00;5.32;;;6.50;99.90;;;;;;5014457;28;20072;-67
2023/12/22 08:58:33;;;;;;;32.25;6.25;;;6.50;99.90;;;;;;5022359;28;20395;-67
2023/12/22 09:00:58;;;;;;;35.72;5.85;;;6.50;99.90;;;;;;5007948;28;20081;-67
2023/12/22 09:03:24;;;;;;;37.75;6.63;;;6.50;99.90;;;;;;5022739;28;20088;-67
2023/12/22 09:05:50;;;;;;;32.40;5.68;;;6.60;99.90;;;;;;5024772;28;20045;-67
2023/12/22 09:08:18;;;;;;;35.10;4.75;;;6.60;99.90;;;;;;5040847;28;20056;-67
2023/12/22 09:10:45;;;;;;;36.67;6.05;;;6.60;99.90;;;;;;5007411;28;20058;-67
2023/12/22 09:13:11;;;;;;;38.60;5.45;;;6.60;99.90;;;;;;5028018;28;20136;-67
2023/12/22 09:15:37;;;;;;;35.42;4.95;;;6.60;99.90;;;;;;5010723;28;20598;-67
2023/12/22 09:18:02;;;;;;;33.53;5.88;;;6.60;99.90;;;;;;5035496;28;20083;-67
2023/12/22 09:20:30;;;;;;;38.33;5.75;;;6.60;99.90;;;;;;4995054;28;20548;-66
2023/12/22 09:22:55;;;;;;;33.88;5.88;;;6.60;99.90;;;;;;5031455;28;20060;-67
2023/12/22 09:25:23;;;;;;;32.30;5.03;;;6.60;99.90;;;;;;5020771;28;20049;-67
2023/12/22 09:27:49;;;;;;;40.67;5.80;;;6.60;99.90;;;;;;5027197;28;20049;-67
2023/12/22 09:30:15;;;;;;;23.73;3.33;;;6.60;99.90;;;;;;5030912;28;20041;-67
2023/12/22 09:32:41;;;;;;;49.20;7.35;;;6.60;99.90;;;;;;5032247;28;20453;-67
2023/12/22 09:35:07;;;;;;;12.45;3.13;;;6.60;99.90;;;;;;5031532;28;20136;-67
2023/12/22 09:37:33;;;;;;;37.80;5.40;;;6.70;99.90;;;;;;5028586;28;20399;-67
2023/12/22 09:40:00;;;;;;;25.83;4.78;;;6.70;99.90;;;;;;5031053;28;20041;-67
2023/12/22 09:42:26;;;;;;;45.20;6.18;;;6.70;99.90;;;;;;5028575;28;20060;-67
2023/12/22 09:44:55;;;;;;;27.65;4.82;;;6.70;99.90;;;;;;5011809;28;20791;-67
2023/12/22 09:47:22;;;;;;;31.55;4.10;;;6.80;99.90;;;;;;5028381;28;20127;-67
2023/12/22 09:49:49;;;;;;;32.40;3.80;;;6.80;99.90;;;;;;5032700;28;20045;-67
2023/12/22 09:52:16;;;;;;;30.10;4.53;;;6.90;99.90;;;;;;5027768;28;20045;-67
2023/12/22 09:54:43;;;;;;;28.40;4.53;;;6.90;99.90;;;;;;5012764;28;20043;-67
2023/12/22 09:57:10;;;;;;;31.33;4.72;;;6.90;99.90;;;;;;5026115;28;20057;-67
2023/12/22 09:59:36;;;;;;;26.75;4.63;;;6.90;99.90;;;;;;5033891;28;20049;-67
2023/12/22 10:02:04;;;;;;;28.80;4.50;;;7.00;99.90;;;;;;5027483;28;20132;-67
2023/12/22 10:04:30;;;;;;;27.88;4.78;;;7.00;99.90;;;;;;5025579;28;20081;-67
2023/12/22 10:07:01;;;;;;;35.47;4.75;;;7.00;99.90;;;;;;5000790;28;20080;-67
2023/12/22 10:09:28;;;;;;;38.33;5.47;;;7.00;99.90;;;;;;5005830;28;20048;-67
2023/12/22 10:11:54;;;;;;;27.08;5.25;;;7.00;99.90;;;;;;5025321;28;20044;-67
2023/12/22 10:14:22;;;;;;;36.15;6.30;;;7.00;99.90;;;;;;5034643;28;20072;-67
2023/12/22 10:16:52;;;;;;;30.98;6.03;;;7.00;99.90;;;;;;5022277;28;20076;-67
2023/12/22 10:19:20;;;;;;;42.97;6.53;;;7.10;99.90;;;;;;5028258;28;20058;-67
2023/12/22 10:21:45;;;;;;;32.40;5.30;;;7.10;99.90;;;;;;5042569;28;20532;-67
2023/12/22 10:24:47;;;;;;;41.80;8.32;;;7.10;99.90;;;;;;5025502;28;20048;-67
2023/12/22 10:27:14;;;;;;;37.88;5.75;;;7.10;99.90;;;;;;5024402;28;20143;-67
2023/12/22 10:29:40;;;;;;;38.58;4.50;;;7.10;99.90;;;;;;5018335;28;20060;-67
2023/12/22 10:32:08;;;;;;;47.47;6.13;;;7.10;99.90;;;;;;5014452;28;20048;-67
2023/12/22 10:34:34;;;;;;;48.40;6.25;;;7.20;99.90;;;;;;5022130;28;20081;-67
2023/12/22 10:37:00;;;;;;;37.35;6.55;;;7.20;99.90;;;;;;5009518;28;20466;-67
2023/12/22 10:39:33;;;;;;;31.63;6.28;;;7.20;99.90;;;;;;5010419;28;20040;-67
2023/12/22 10:41:59;;;;;;;33.97;6.50;;;7.20;99.90;;;;;;5013969;28;20052;-67
2023/12/22 10:44:26;;;;;;;49.05;9.82;;;7.20;99.90;;;;;;5031474;28;20048;-67
2023/12/22 10:46:52;;;;;;;46.80;8.60;;;7.30;99.90;;;;;;5009488;28;20120;-67
2023/12/22 10:49:19;;;;;;;30.90;5.03;;;7.30;99.90;;;;;;5036431;28;20838;-67
2023/12/22 10:51:44;;;;;;;40.08;6.97;;;7.30;99.90;;;;;;5009043;28;20041;-67
2023/12/22 10:54:10;;;;;;;38.92;7.60;;;7.30;99.90;;;;;;5024377;28;20057;-67
2023/12/22 10:56:36;;;;;;;41.33;7.45;;;7.40;99.90;;;;;;5024605;28;20492;-67
2023/12/22 10:59:03;;;;;;;40.10;6.10;;;7.40;99.90;;;;;;5026093;28;20056;-67
2023/12/22 11:01:29;;;;;;;42.38;8.05;;;7.50;99.90;;;;;;5025523;28;20060;-67
2023/12/22 11:04:00;;;;;;;44.70;7.85;;;7.50;99.90;;;;;;5026001;28;20051;-67
2023/12/22 11:06:28;;;;;;;36.50;8.35;;;7.60;99.90;;;;;;5031923;28;20060;-67
2023/12/22 11:08:56;;;;;;;38.72;7.28;;;7.60;99.90;;;;;;5024578;28;20323;-67
2023/12/22 11:11:34;;;;;;;33.30;5.80;;;7.60;99.90;;;;;;5003723;28;20052;-67
2023/12/22 11:14:00;;;;;;;34.70;5.13;;;7.60;99.90;;;;;;5023384;28;20127;-67
2023/12/22 11:16:29;;;;;;;33.85;5.20;;;7.60;99.90;;;;;;5023782;28;20057;-67
2023/12/22 11:18:56;;;;;;;22.67;4.35;;;7.60;99.90;;;;;;5008910;28;20446;-67
2023/12/22 11:21:23;;;;;;;29.15;6.82;;;7.60;99.90;;;;;;5028348;28;20227;-66
2023/12/22 11:23:53;;;;;;;26.05;5.97;;;7.60;99.90;;;;;;5021906;28;20056;-67
2023/12/22 11:26:20;;;;;;;27.98;5.45;;;7.60;99.90;;;;;;5028816;28;20045;-67
2023/12/22 11:28:48;;;;;;;39.40;6.57;;;7.60;99.90;;;;;;5024074;28;20060;-67
2023/12/22 11:31:15;;;;;;;29.30;6.03;;;7.60;99.90;;;;;;5017431;28;20092;-67
2023/12/22 11:33:49;;;;;;;28.13;4.45;;;7.60;99.90;;;;;;5015787;28;20053;-67
2023/12/22 11:36:16;;;;;;;25.48;4.35;;;7.60;99.90;;;;;;5024917;28;20207;-67
2023/12/22 11:38:43;;;;;;;29.20;4.35;;;7.60;99.90;;;;;;5025989;28;20049;-67
2023/12/22 11:41:27;;;;;;;34.90;5.50;;;7.60;99.90;;;;;;5024234;28;20523;-67
2023/12/22 11:43:53;;;;;;;29.08;4.57;;;7.60;99.90;;;;;;5033602;28;20055;-67
2023/12/22 11:46:19;;;;;;;33.17;4.82;;;7.60;99.90;;;;;;5008971;28;20572;-67
2023/12/22 11:48:52;;;;;;;31.70;5.18;;;7.60;99.90;;;;;;5024089;28;20047;-67
2023/12/22 11:51:18;;;;;;;31.33;5.22;;;7.60;99.90;;;;;;5023380;28;20098;-68
2023/12/22 11:53:45;;;;;;;32.33;5.03;;;7.60;99.90;;;;;;5006529;28;20182;-67
2023/12/22 11:56:13;;;;;;;31.15;5.60;;;7.60;99.90;;;;;;5023571;28;20037;-68
2023/12/22 11:58:59;;;;;;;30.45;6.30;;;7.70;99.90;;;;;;5023658;28;20049;-68
2023/12/22 12:01:28;;;;;;;30.20;4.75;;;7.70;99.90;;;;;;5022078;28;20055;-67
2023/12/22 12:04:01;;;;;;;30.58;3.97;;;7.70;99.90;;;;;;5023725;28;20053;-67
2023/12/22 12:06:26;;;;;;;23.70;3.40;;;7.70;99.90;;;;;;5025288;28;20049;-68
2023/12/22 12:09:04;;;;;;;26.52;4.22;;;7.60;99.90;;;;;;5026162;28;20055;-68
2023/12/22 12:11:48;;;;;;;29.73;4.35;;;7.60;99.90;;;;;;5011172;28;20059;-68
2023/12/22 12:14:16;;;;;;;21.83;3.80;;;7.60;99.90;;;;;;5017994;28;20068;-68
2023/12/22 12:16:42;;;;;;;27.55;3.88;;;7.60;99.90;;;;;;4998381;28;20492;-68
2023/12/22 12:19:09;;;;;;;28.90;3.45;;;7.60;99.90;;;;;;4992546;28;20434;-68
2023/12/22 12:21:35;;;;;;;22.50;3.92;;;7.60;99.90;;;;;;5023610;28;20402;-67
2023/12/22 12:24:00;;;;;;;21.40;3.17;;;7.60;99.90;;;;;;4997437;28;20049;-67
2023/12/22 12:26:28;;;;;;;21.13;4.05;;;7.60;99.90;;;;;;5007524;28;20080;-68
2023/12/22 12:28:56;;;;;;;20.27;4.80;;;7.60;99.90;;;;;;5011105;28;20060;-68
2023/12/22 12:31:37;;;;;;;26.73;3.45;;;7.60;99.90;;;;;;5007343;28;20037;-68
2023/12/22 12:34:04;;;;;;;25.88;5.47;;;7.60;99.90;;;;;;5018138;28;20124;-68
2023/12/22 12:36:31;;;;;;;23.52;3.97;;;7.60;99.90;;;;;;5032947;28;20049;-68
2023/12/22 12:39:08;;;;;;;20.45;3.22;;;7.60;99.90;;;;;;5021751;28;20044;-68
2023/12/22 12:41:40;;;;;;;18.05;3.80;;;7.60;99.90;;;;;;5041932;28;20044;-68
2023/12/22 12:44:06;;;;;;;23.63;4.72;;;7.70;99.90;;;;;;5039771;28;20055;-68